createdAt,value
2022-12-28T00:04:26.298Z,100850.28
2022-12-28T00:09:29.215Z,100855.13
2022-12-28T00:14:33.738Z,100855.13
2022-12-28T00:19:36.552Z,100862.22
2022-12-28T00:24:39.424Z,100874.94
2022-12-28T00:29:43.945Z,100875.25
2022-12-28T00:34:46.801Z,100887.94
2022-12-28T00:39:49.627Z,100897.56
2022-12-28T00:44:54.099Z,100907.31
2022-12-28T00:49:56.935Z,100899.69
2022-12-28T00:54:59.774Z,100894.84
2022-12-28T01:00:04.633Z,100892.47
2022-12-28T01:05:08.023Z,100887.59
2022-12-28T01:10:11.410Z,100887.94
2022-12-28T01:15:15.905Z,100907.25
2022-12-28T01:20:19.570Z,100913.84
2022-12-28T01:25:22.409Z,100910.81
2022-12-28T01:30:26.962Z,100897.13
2022-12-28T01:35:29.831Z,100911.56
2022-12-28T01:40:32.681Z,100921.38
2022-12-28T01:45:37.259Z,100918.97
2022-12-28T01:50:40.159Z,100935.63
2022-12-28T01:55:43.114Z,100935.19
2022-12-28T02:00:48.826Z,100941.25
2022-12-28T02:05:53.230Z,100949.16
2022-12-28T02:10:56.912Z,100945.88
2022-12-28T02:16:01.828Z,100947.66
2022-12-28T02:21:25.289Z,100947.66
2022-12-28T02:26:36.482Z,100959.22
2022-12-28T02:31:44.035Z,100972.41
2022-12-28T02:36:50.803Z,100983.91
2022-12-28T02:41:54.572Z,100997.78
2022-12-28T02:46:59.539Z,101015.22
2022-12-28T02:52:08.298Z,101030.09
2022-12-28T02:57:16.403Z,101033.41
2022-12-28T03:02:28.085Z,101037.94
2022-12-28T03:07:36.484Z,101040.78
2022-12-28T03:12:44.204Z,101041.09
2022-12-28T03:17:48.780Z,101057.72
2022-12-28T03:22:52.503Z,101062.91
2022-12-28T03:27:55.431Z,101073.38
2022-12-28T03:33:01.545Z,101078.63
2022-12-28T03:38:04.952Z,101098.91
2022-12-28T03:43:11.115Z,101119.97
2022-12-28T03:48:15.810Z,101124.78
2022-12-28T03:53:20.551Z,101101.97
2022-12-28T03:58:23.377Z,101099.06
2022-12-28T04:03:28.076Z,101084.25
2022-12-28T04:08:31.520Z,101095.91
2022-12-28T04:13:34.402Z,101087.81
2022-12-28T04:18:39.958Z,101119.78
2022-12-28T04:23:43.284Z,101117.69
2022-12-28T04:28:48.974Z,101138.81
2022-12-28T04:33:53.602Z,101135.56
2022-12-28T04:38:56.497Z,101144.50
2022-12-28T04:43:59.426Z,101149.28
2022-12-28T04:49:04.308Z,101138.88
2022-12-28T04:54:07.567Z,101145.09
2022-12-28T04:59:10.468Z,101151.28
2022-12-28T05:04:15.023Z,101151.34
2022-12-28T05:09:17.920Z,101156.44
2022-12-28T05:14:20.812Z,101165.25
2022-12-28T05:19:25.345Z,101173.09
2022-12-28T05:24:28.232Z,101175.84
2022-12-28T05:29:31.874Z,101176.78
2022-12-28T05:34:36.401Z,101176.91
2022-12-28T05:39:39.286Z,101182.25
2022-12-28T05:44:42.254Z,101184.16
2022-12-28T05:49:46.777Z,101184.28
2022-12-28T05:54:49.626Z,101191.97
2022-12-28T05:59:53.203Z,101179.03
2022-12-28T06:04:57.753Z,101184.13
2022-12-28T06:10:00.586Z,101188.69
2022-12-28T06:15:03.452Z,101199.00
2022-12-28T06:20:08.684Z,101191.78
2022-12-28T06:25:11.548Z,101199.63
2022-12-28T06:30:14.787Z,101198.84
2022-12-28T06:35:19.287Z,101205.69
2022-12-28T06:40:33.342Z,101223.78
2022-12-28T06:45:45.075Z,101225.50
2022-12-28T06:50:56.599Z,101235.94
2022-12-28T06:55:59.956Z,101248.06
2022-12-28T07:01:06.788Z,101255.06
2022-12-28T07:06:12.102Z,101255.06
2022-12-28T07:11:17.523Z,101264.66
2022-12-28T07:16:21.351Z,101270.03
2022-12-28T07:21:26.786Z,101256.28
2022-12-28T07:26:30.764Z,101273.88
2022-12-28T07:31:38.356Z,101265.34
2022-12-28T07:36:44.485Z,101266.31
2022-12-28T07:41:47.362Z,101264.72
2022-12-28T07:46:50.228Z,101254.47
2022-12-28T07:51:54.773Z,101254.38
2022-12-28T07:56:57.636Z,101263.22
2022-12-28T08:02:00.624Z,101263.34
2022-12-28T08:07:05.308Z,101259.97
2022-12-28T08:12:08.371Z,101261.88
2022-12-28T08:17:14.851Z,101269.69
2022-12-28T08:22:23.565Z,101271.59
2022-12-28T08:27:26.391Z,101256.75
2022-12-28T08:32:29.228Z,101256.81
2022-12-28T08:37:33.722Z,101248.13
2022-12-28T08:42:36.533Z,101235.97
2022-12-28T08:47:39.363Z,101223.81
2022-12-28T08:52:43.901Z,101217.75
2022-12-28T08:57:46.746Z,101211.69
2022-12-28T09:02:49.717Z,101206.59
2022-12-28T09:07:59.421Z,101199.59
2022-12-28T09:13:02.622Z,101201.34
2022-12-28T09:18:06.326Z,101190.13
2022-12-28T09:23:10.857Z,101183.19
2022-12-28T09:28:13.801Z,101185.78
2022-12-28T09:33:16.625Z,101169.31
2022-12-28T09:38:21.561Z,101171.91
2022-12-28T09:43:24.796Z,101177.13
2022-12-28T09:48:27.677Z,101176.25
2022-12-28T09:53:34.237Z,101185.97
2022-12-28T09:58:38.298Z,101195.59
2022-12-28T10:03:41.957Z,101198.19
2022-12-28T10:08:48.805Z,101204.34
2022-12-28T10:13:56.130Z,101201.78
2022-12-28T10:18:59.637Z,101210.53
2022-12-28T10:24:31.511Z,101210.50
2022-12-28T10:29:31.944Z,101206.22
2022-12-28T10:34:35.516Z,101206.25
2022-12-28T10:39:40.036Z,101212.38
2022-12-28T10:44:43.333Z,101210.69
2022-12-28T10:50:10.067Z,101208.09
2022-12-28T10:55:27.024Z,101209.94
2022-12-28T11:00:31.630Z,101208.25
2022-12-28T11:05:34.533Z,101221.19
2022-12-28T11:10:37.606Z,101219.47
2022-12-28T11:15:42.107Z,101210.03
2022-12-28T11:20:45.963Z,101215.25
2022-12-28T11:25:49.062Z,101222.19
2022-12-28T11:30:53.685Z,101236.91
2022-12-28T11:35:59.757Z,101230.88
2022-12-28T11:41:03.559Z,101230.03
2022-12-28T11:46:08.687Z,101217.91
2022-12-28T11:51:15.614Z,101218.78
2022-12-28T11:56:19.697Z,101222.31
2022-12-28T12:01:40.753Z,101212.78
2022-12-28T12:07:01.602Z,101212.75
2022-12-28T12:12:32.972Z,101218.81
2022-12-28T12:17:43.309Z,101224.88
2022-12-28T12:22:48.707Z,101217.94
2022-12-28T12:27:56.037Z,101221.44
2022-12-28T12:33:00.957Z,101210.19
2022-12-28T12:38:06.755Z,101201.50
2022-12-28T12:43:19.610Z,101203.22
2022-12-28T12:48:36.850Z,101203.25
2022-12-28T12:53:52.279Z,101198.91
2022-12-28T12:59:03.539Z,101202.38
2022-12-28T13:04:14.523Z,101213.63
2022-12-28T13:09:18.080Z,101206.75
2022-12-28T13:14:23.762Z,101200.69
2022-12-28T13:19:27.255Z,101198.03
2022-12-28T13:24:30.864Z,101201.44
2022-12-28T13:29:40.212Z,101204.78
2022-12-28T13:34:49.810Z,101205.53
2022-12-28T13:40:08.968Z,101207.19
2022-12-28T13:45:15.830Z,101209.72
2022-12-28T13:50:19.848Z,101226.06
2022-12-28T13:55:24.658Z,101239.13
2022-12-28T14:00:30.766Z,101245.47
2022-12-28T14:05:34.364Z,101254.97
2022-12-28T14:10:37.547Z,101263.25
2022-12-28T14:15:42.400Z,101262.56
2022-12-28T14:20:48.853Z,101264.44
2022-12-28T14:25:52.210Z,101279.22
2022-12-28T14:30:57.276Z,101285.34
2022-12-28T14:36:00.892Z,101291.50
2022-12-28T14:41:03.879Z,101290.66
2022-12-28T14:46:18.607Z,101302.81
2022-12-28T14:51:26.018Z,101306.28
2022-12-28T14:56:34.137Z,101314.09
2022-12-28T15:01:43.193Z,101320.13
2022-12-28T15:06:46.113Z,101323.59
2022-12-28T15:11:49.013Z,101334.84
2022-12-28T15:16:53.638Z,101327.94
2022-12-28T15:21:56.511Z,101321.88
2022-12-28T15:26:59.345Z,101323.63
2022-12-28T15:32:03.848Z,101332.25
2022-12-28T15:37:06.688Z,101334.84
2022-12-28T15:42:10.232Z,101334.00
2022-12-28T15:47:14.805Z,101328.81
2022-12-28T15:52:17.651Z,101326.19
2022-12-28T15:57:20.532Z,101335.72
2022-12-28T16:02:25.223Z,101329.63
2022-12-28T16:07:28.135Z,101340.88
2022-12-28T16:12:30.949Z,101329.56
2022-12-28T16:17:41.154Z,101330.34
2022-12-28T16:22:49.837Z,101323.41
2022-12-28T16:27:52.686Z,101319.00
2022-12-28T16:32:57.173Z,101327.59
2022-12-28T16:38:00.002Z,101331.69
2022-12-28T16:43:05.633Z,101331.69
2022-12-28T16:48:11.873Z,101328.81
2022-12-28T16:53:15.512Z,101330.19
2022-12-28T16:58:20.775Z,101332.50
2022-12-28T17:03:25.368Z,101344.66
2022-12-28T17:08:28.329Z,101347.31
2022-12-28T17:13:31.147Z,101343.69
2022-12-28T17:18:35.764Z,101352.75
2022-12-28T17:23:38.943Z,101353.94
2022-12-28T17:28:41.850Z,101342.38
2022-12-28T17:33:47.673Z,101343.81
2022-12-28T17:38:50.843Z,101331.88
2022-12-28T17:43:54.364Z,101334.50
2022-12-28T17:48:59.299Z,101335.97
2022-12-28T17:54:02.385Z,101337.72
2022-12-28T17:59:05.272Z,101341.91
2022-12-28T18:04:09.770Z,101349.81
2022-12-28T18:09:12.586Z,101343.81
2022-12-28T18:14:15.462Z,101350.53
2022-12-28T18:19:20.032Z,101347.66
2022-12-28T18:24:22.877Z,101350.13
2022-12-28T18:29:25.776Z,101352.91
2022-12-28T18:34:30.342Z,101346.25
2022-12-28T18:39:33.173Z,101351.72
2022-12-28T18:44:36.033Z,101356.69
2022-12-28T18:49:46.803Z,101359.09
2022-12-28T18:54:49.996Z,101357.50
2022-12-28T18:59:52.846Z,101373.97
2022-12-28T19:04:57.404Z,101376.75
2022-12-28T19:10:01.264Z,101364.06
2022-12-28T19:15:07.184Z,101349.78
2022-12-28T19:20:12.089Z,101375.31
2022-12-28T19:25:15.003Z,101371.31
2022-12-28T19:30:17.926Z,101371.28
2022-12-28T19:35:22.463Z,101349.38
2022-12-28T19:40:25.338Z,101358.16
2022-12-28T19:45:28.192Z,101344.66
2022-12-28T19:50:32.707Z,101349.69
2022-12-28T19:55:35.536Z,101327.09
2022-12-28T20:00:38.391Z,101311.19
2022-12-28T20:05:42.889Z,101303.50
2022-12-28T20:10:45.766Z,101278.09
2022-12-28T20:15:48.638Z,101296.84
2022-12-28T20:21:18.536Z,101288.81
2022-12-28T20:26:16.605Z,101277.97
2022-12-28T20:31:19.546Z,101263.41
2022-12-28T20:36:24.836Z,101243.72
2022-12-28T20:41:28.474Z,101233.41
2022-12-28T20:46:31.449Z,101227.56
2022-12-28T20:51:36.300Z,101207.63
2022-12-28T20:56:39.458Z,101207.84
2022-12-28T21:01:42.911Z,101203.06
2022-12-28T21:06:47.575Z,101199.56
2022-12-28T21:11:50.476Z,101187.38
2022-12-28T21:16:53.494Z,101162.44
2022-12-28T21:21:59.079Z,101156.59
2022-12-28T21:27:01.968Z,101151.72
2022-12-28T21:32:05.166Z,101147.44
2022-12-28T21:37:09.725Z,101136.22
2022-12-28T21:42:12.570Z,101131.16
2022-12-28T21:47:15.451Z,101153.31
2022-12-28T21:52:19.992Z,101157.22
2022-12-28T21:57:22.886Z,101154.44
2022-12-28T22:02:25.956Z,101148.25
2022-12-28T22:07:30.961Z,101144.81
2022-12-28T22:12:34.009Z,101156.59
2022-12-28T22:17:36.946Z,101160.72
2022-12-28T22:22:42.195Z,101158.09
2022-12-28T22:27:45.087Z,101154.34
2022-12-28T22:32:47.984Z,101158.06
2022-12-28T22:37:52.495Z,101169.28
2022-12-28T22:42:55.348Z,101154.56
2022-12-28T22:47:58.197Z,101148.59
2022-12-28T22:53:02.696Z,101149.72
2022-12-28T22:58:05.566Z,101165.03
2022-12-28T23:03:08.481Z,101157.97
2022-12-28T23:08:13.040Z,101162.38
2022-12-28T23:13:15.896Z,101183.16
2022-12-28T23:18:18.793Z,101208.09
2022-12-28T23:23:23.895Z,101224.03
2022-12-28T23:28:26.893Z,101234.97
2022-12-28T23:33:29.764Z,101221.63
2022-12-28T23:38:34.478Z,101240.47
2022-12-28T23:43:37.340Z,101242.81
2022-12-28T23:48:40.240Z,101230.16
2022-12-28T23:53:44.784Z,101230.16
2022-12-28T23:58:50.181Z,101232.03
